Palo Alto, Texas
Current Conditions -  °F | °C
As of 11:38 AM on Saturday 22 Nov 2014 (Local Time) from KNQI Reporting Station
Light Rain Light Rain  
Wind Chill: 77°   Ceiling: 3200
Heat Index: 79°   Visibility: 10mi
Dew Point: 70°   Wind: 16mph
Humidity: 79%   Direction: 140°SE
Pressure: 29.91"   Gusts: NA
Location:  27.6102°N, 97.7383°W
Report Text: KNQI 221738Z AUTO 14014KT 10SM -RA FEW020 BKN032 OVC070 25/21 A2991 RMK AO2 P0000 T02500211 $
Loading
Personal Weather Stations






























Interactive Weather Map New forecast layout! Learn more

10-Day Weather Forecast

Advertisements
Track Severe Weather on mobile